Terminal Aerodrome Forecast
Issued by NWS Charleston, WV

Home | Current Version | Previous Version | Text Only | Print | Product List | Glossary On
Versions: 1 2 3 4 5 6 7 8 9 10 11 12 13 14 15 16 17 18 19 20 21 22 23 24 25 26 27 28 29 30 31 32 33
132
FTUS41 KRLX 301120
TAFPKB
TAF
KPKB 301120Z 3012/3112 00000KT 6SM BR OVC012
      TEMPO 3012/3013 BKN008
     FM301400 VRB03KT P6SM BKN025
     FM301600 VRB03KT P6SM BKN035
     FM301800 VRB03KT P6SM VCTS BKN035CB
     FM302100 VRB03KT P6SM BKN040
     FM310800 00000KT 3SM BR BKN035
     FM310900 00000KT 1SM BR BKN001=

USA.gov is the U.S. government's official web portal to all federal, state and local government web resources and services.